Time;durP1;ratioP1;P1;durP2;ratioP2;P2;SDS_P1;SDS_P2;PMS_P1;PMS_P2;Temp;Humidity;BMP_temperature;BMP_pressure;BME280_temperature;BME280_humidity;BME280_pressure;Samples;Min_cycle;Max_cycle;Signal;HPM_P1;HPM_P2
2022/01/19 00:02:46;;;;;;;5.28;3.05;;;5.60;80.00;;;;;;6258396;28;20132;-81
2022/01/19 00:05:49;;;;;;;7.20;2.05;;;5.70;79.80;;;;;;6257456;28;20455;-81
2022/01/19 00:08:52;;;;;;;3.58;2.00;;;5.80;79.70;;;;;;6257309;28;20480;-84
2022/01/19 00:11:54;;;;;;;6.75;2.50;;;5.80;79.40;;;;;;6258159;28;20527;-81
2022/01/19 00:14:56;;;;;;;4.82;2.63;;;5.90;79.30;;;;;;6257757;28;20045;-83
2022/01/19 00:17:59;;;;;;;6.85;2.50;;;5.90;79.10;;;;;;6257161;28;20052;-83
2022/01/19 00:21:01;;;;;;;6.07;2.05;;;6.00;78.90;;;;;;6257614;28;20057;-83
2022/01/19 00:24:06;;;;;;;6.53;2.95;;;6.00;78.80;;;;;;6258067;28;20076;-83
2022/01/19 00:27:08;;;;;;;5.28;2.90;;;6.00;78.50;;;;;;6256928;28;20049;-81
2022/01/19 00:30:10;;;;;;;3.67;2.13;;;6.10;78.60;;;;;;6256391;28;20045;-83
2022/01/19 00:33:13;;;;;;;6.80;2.78;;;6.00;78.50;;;;;;6256446;28;20049;-83
2022/01/19 00:36:14;;;;;;;9.32;3.40;;;6.00;78.40;;;;;;6256382;28;20049;-83
2022/01/19 00:39:17;;;;;;;3.47;2.35;;;6.00;78.60;;;;;;6256597;28;20041;-83
2022/01/19 00:42:20;;;;;;;4.55;2.20;;;5.90;78.60;;;;;;6255971;28;20404;-81
2022/01/19 00:45:22;;;;;;;5.53;2.50;;;5.90;78.80;;;;;;6255759;28;20052;-82
2022/01/19 00:48:23;;;;;;;5.53;2.65;;;5.80;79.00;;;;;;6267683;23;20045;-78
2022/01/19 00:51:25;;;;;;;6.10;2.50;;;5.70;79.20;;;;;;6250133;28;20053;-77
2022/01/19 00:54:28;;;;;;;6.03;2.80;;;5.50;79.50;;;;;;6250036;28;20059;-78
2022/01/19 00:57:30;;;;;;;5.28;3.20;;;5.40;79.80;;;;;;6249927;28;20053;-78
2022/01/19 01:00:32;;;;;;;6.47;2.28;;;5.20;80.00;;;;;;6250734;28;20490;-78
2022/01/19 01:03:34;;;;;;;4.45;1.98;;;5.10;80.40;;;;;;6251952;28;20056;-77
2022/01/19 01:06:35;;;;;;;4.28;1.83;;;5.00;80.80;;;;;;6239656;28;20060;-78
2022/01/19 01:09:38;;;;;;;4.10;2.17;;;4.80;81.10;;;;;;6231990;28;20054;-78
2022/01/19 01:12:47;;;;;;;7.07;2.22;;;4.70;81.20;;;;;;6228478;28;20049;-79
2022/01/19 01:16:00;;;;;;;3.90;1.60;;;4.40;81.40;;;;;;6226554;28;20045;-78
2022/01/19 01:19:04;;;;;;;4.82;1.90;;;4.20;82.10;;;;;;6230685;28;20034;-78
2022/01/19 01:22:06;;;;;;;3.60;1.60;;;4.10;82.40;;;;;;6225803;28;20177;-79
2022/01/19 01:25:10;;;;;;;4.45;1.98;;;3.90;82.70;;;;;;6224501;28;20045;-79
2022/01/19 01:28:13;;;;;;;6.65;2.33;;;3.70;83.10;;;;;;6225896;28;20046;-79
2022/01/19 01:31:15;;;;;;;3.22;1.52;;;3.60;83.90;;;;;;6225141;28;20101;-78
2022/01/19 01:34:17;;;;;;;4.65;2.38;;;3.50;83.60;;;;;;6224586;28;20052;-79
2022/01/19 01:37:19;;;;;;;3.20;2.03;;;3.40;84.00;;;;;;6224599;28;20045;-78
2022/01/19 01:40:25;;;;;;;5.93;2.22;;;3.40;84.20;;;;;;6225058;28;20133;-79
2022/01/19 01:43:27;;;;;;;6.47;2.08;;;3.30;84.20;;;;;;6224361;28;20049;-78
2022/01/19 01:46:35;;;;;;;6.97;2.67;;;3.10;84.50;;;;;;6224509;28;20121;-78
2022/01/19 01:49:46;;;;;;;8.55;2.08;;;3.00;84.80;;;;;;6224905;28;20412;-78
2022/01/19 01:56:10;;;;;;;5.00;2.33;;;2.80;85.70;;;;;;6225695;28;20082;-78
2022/01/19 01:59:12;;;;;;;5.80;2.60;;;2.80;85.70;;;;;;6225474;28;20045;-80
2022/01/19 02:02:15;;;;;;;5.35;2.38;;;2.70;85.80;;;;;;6224675;28;20061;-78
2022/01/19 02:05:18;;;;;;;5.97;2.85;;;2.70;87.60;;;;;;6224571;28;20049;-78
2022/01/19 02:08:22;;;;;;;7.53;2.88;;;2.70;87.30;;;;;;6225070;28;20067;-78
2022/01/19 02:21:44;;;;;;;11.65;4.57;;;2.60;90.20;;;;;;6223303;28;20041;-78
2022/01/19 02:24:48;;;;;;;9.18;3.95;;;2.70;90.30;;;;;;6224301;28;20045;-78
2022/01/19 02:41:11;;;;;;;8.48;4.82;;;3.00;89.90;;;;;;6225135;28;20045;-78
2022/01/19 02:44:27;;;;;;;16.00;4.60;;;3.00;89.80;;;;;;6225075;28;20049;-78
2022/01/19 02:50:48;;;;;;;9.50;3.80;;;3.00;89.00;;;;;;6224185;28;20550;-79
2022/01/19 02:53:51;;;;;;;5.57;3.15;;;3.00;88.60;;;;;;6223074;28;20052;-78
2022/01/19 02:56:58;;;;;;;8.27;4.15;;;2.90;88.60;;;;;;6222479;28;20462;-78
2022/01/19 03:09:55;;;;;;;8.13;2.80;;;2.60;88.50;;;;;;6224705;28;20042;-79
2022/01/19 03:12:57;;;;;;;6.57;3.53;;;2.50;88.40;;;;;;6226720;28;20046;-79
2022/01/19 03:15:59;;;;;;;5.65;3.38;;;2.40;88.50;;;;;;6228009;28;20144;-79
2022/01/19 03:19:00;;;;;;;11.80;5.35;;;2.40;88.80;;;;;;6227656;28;20129;-78
2022/01/19 03:22:02;;;;;;;9.50;4.07;;;2.30;89.60;;;;;;6223239;28;20136;-79
2022/01/19 03:25:11;;;;;;;7.70;4.13;;;2.30;90.00;;;;;;6223691;28;20042;-79
2022/01/19 03:28:13;;;;;;;9.02;4.90;;;2.20;89.70;;;;;;6224423;28;20050;-78
2022/01/19 03:31:15;;;;;;;13.10;7.53;;;2.20;90.00;;;;;;6222994;28;20529;-78
2022/01/19 03:34:17;;;;;;;15.13;7.30;;;2.30;90.50;;;;;;6222475;28;20049;-79
2022/01/19 03:37:19;;;;;;;11.90;7.00;;;2.40;90.70;;;;;;6222892;28;20042;-79
2022/01/19 03:40:22;;;;;;;15.88;6.57;;;2.50;90.60;;;;;;6224023;28;20069;-79
2022/01/19 03:43:24;;;;;;;12.73;5.95;;;2.60;90.70;;;;;;6224637;28;20077;-80
2022/01/19 03:46:33;;;;;;;11.95;5.55;;;2.70;90.50;;;;;;6224607;28;20056;-78
2022/01/19 03:49:34;;;;;;;13.10;6.00;;;2.70;90.40;;;;;;6225518;28;20049;-79
2022/01/19 03:52:36;;;;;;;11.80;5.43;;;2.80;90.30;;;;;;6227667;28;20057;-79
2022/01/19 03:55:39;;;;;;;7.95;5.00;;;2.90;90.30;;;;;;6227572;28;20147;-78
2022/01/19 03:58:41;;;;;;;10.55;5.60;;;2.90;90.20;;;;;;6226379;28;20057;-79
2022/01/19 04:01:43;;;;;;;10.50;5.47;;;3.00;90.10;;;;;;6224492;28;20142;-80
2022/01/19 04:04:49;;;;;;;16.70;6.63;;;3.00;90.00;;;;;;6225226;28;20057;-79
2022/01/19 04:07:51;;;;;;;12.27;4.65;;;3.00;89.80;;;;;;6224480;28;20065;-80
2022/01/19 04:10:54;;;;;;;9.40;5.60;;;2.90;89.60;;;;;;6225365;28;20045;-79
2022/01/19 04:14:21;;;;;;;10.75;4.47;;;2.90;89.40;;;;;;6225113;28;20478;-79
2022/01/19 04:17:23;;;;;;;13.00;4.88;;;2.80;89.60;;;;;;6224345;28;20056;-78
2022/01/19 04:20:26;;;;;;;7.72;3.72;;;2.80;89.40;;;;;;6225026;28;20057;-79
2022/01/19 04:23:28;;;;;;;9.93;4.93;;;2.70;89.20;;;;;;6224103;28;20125;-78
2022/01/19 04:26:32;;;;;;;9.77;5.40;;;2.60;89.10;;;;;;6223383;28;20093;-78
2022/01/19 04:29:33;;;;;;;6.85;3.92;;;2.50;89.30;;;;;;6223312;28;20105;-79
2022/01/19 04:32:42;;;;;;;9.57;4.32;;;2.40;89.20;;;;;;6224598;28;20148;-79
2022/01/19 04:35:50;;;;;;;12.60;5.25;;;2.40;89.30;;;;;;6223975;28;20136;-79
2022/01/19 04:39:21;;;;;;;7.10;3.72;;;2.30;89.40;;;;;;6226931;28;20093;-78
2022/01/19 04:46:04;;;;;;;9.15;5.35;;;2.10;89.50;;;;;;6226199;28;20499;-79
2022/01/19 04:54:07;;;;;;;8.18;4.53;;;2.00;89.30;;;;;;6228783;28;20096;-79
2022/01/19 05:03:10;;;;;;;10.00;4.85;;;1.60;90.00;;;;;;6227801;28;20046;-78
2022/01/19 05:06:15;;;;;;;9.65;5.25;;;1.60;90.10;;;;;;6227786;28;20049;-79
2022/01/19 05:09:29;;;;;;;11.57;4.78;;;1.50;90.00;;;;;;6226929;28;20662;-79
2022/01/19 05:15:51;;;;;;;19.88;5.10;;;1.40;89.70;;;;;;6228525;28;20054;-79
2022/01/19 05:18:53;;;;;;;14.45;6.57;;;1.30;90.00;;;;;;6227380;28;20038;-78
2022/01/19 05:21:55;;;;;;;13.57;7.30;;;1.30;90.30;;;;;;6227523;28;20248;-80
2022/01/19 05:24:56;;;;;;;13.98;7.13;;;1.20;90.50;;;;;;6227400;28;20076;-82
2022/01/19 05:27:58;;;;;;;15.77;7.50;;;1.30;90.70;;;;;;6228797;28;20052;-81
2022/01/19 05:31:01;;;;;;;32.92;9.85;;;1.20;91.10;;;;;;6226959;28;20052;-78
2022/01/19 05:34:03;;;;;;;18.50;7.85;;;1.30;91.20;;;;;;6227408;28;20132;-80
2022/01/19 05:37:06;;;;;;;15.43;9.07;;;1.30;91.60;;;;;;6229404;28;20124;-80
2022/01/19 05:40:13;;;;;;;23.70;9.10;;;1.30;91.60;;;;;;6235313;28;20503;-79
2022/01/19 05:43:17;;;;;;;26.10;10.35;;;1.30;92.20;;;;;;6234033;28;20056;-79
2022/01/19 05:46:22;;;;;;;29.65;13.02;;;1.40;92.10;;;;;;6237197;28;20110;-79
2022/01/19 05:49:24;;;;;;;29.10;12.25;;;1.40;92.00;;;;;;6233513;28;20526;-79
2022/01/19 05:52:26;;;;;;;23.40;9.63;;;1.50;92.30;;;;;;6234787;28;20099;-79
2022/01/19 05:55:33;;;;;;;25.63;11.93;;;1.60;92.30;;;;;;6234543;28;20057;-78
2022/01/19 05:58:34;;;;;;;19.23;9.48;;;1.60;92.10;;;;;;6234019;28;20443;-78
2022/01/19 06:01:38;;;;;;;19.35;10.40;;;1.60;92.20;;;;;;6235047;28;20136;-80
2022/01/19 06:04:40;;;;;;;34.15;12.88;;;1.60;92.00;;;;;;6233563;28;20140;-79
2022/01/19 06:07:44;;;;;;;19.90;10.88;;;1.60;92.00;;;;;;6233006;28;20074;-79
2022/01/19 06:10:48;;;;;;;19.42;9.85;;;1.60;92.10;;;;;;6235255;28;20422;-78
2022/01/19 06:13:49;;;;;;;23.00;11.10;;;1.60;92.10;;;;;;6232582;28;20050;-79
2022/01/19 06:16:52;;;;;;;24.23;10.32;;;1.50;92.10;;;;;;6229996;28;20046;-78
2022/01/19 06:19:54;;;;;;;24.05;10.98;;;1.60;92.30;;;;;;6230002;28;20042;-79
2022/01/19 06:22:56;;;;;;;29.80;9.57;;;1.60;92.50;;;;;;6229093;28;20573;-79
2022/01/19 06:25:59;;;;;;;22.17;10.13;;;1.60;92.30;;;;;;6229249;28;20050;-79
2022/01/19 06:29:00;;;;;;;30.25;10.60;;;1.60;92.00;;;;;;6229734;28;20076;-79
2022/01/19 06:32:04;;;;;;;28.65;12.80;;;1.50;92.00;;;;;;6226084;28;20559;-78
2022/01/19 06:35:08;;;;;;;30.13;12.32;;;1.50;92.20;;;;;;6223610;28;20128;-78
2022/01/19 06:38:10;;;;;;;29.30;12.48;;;1.40;92.30;;;;;;6224021;28;20418;-78
2022/01/19 06:41:11;;;;;;;26.52;11.48;;;1.40;92.30;;;;;;6223997;28;20049;-78
2022/01/19 06:44:14;;;;;;;21.13;11.77;;;1.30;92.40;;;;;;6224674;28;20049;-80
2022/01/19 06:47:17;;;;;;;30.25;12.35;;;1.30;92.60;;;;;;6223189;28;20053;-79
2022/01/19 06:50:20;;;;;;;26.95;11.93;;;1.30;92.70;;;;;;6271188;23;20101;-79
2022/01/19 06:53:22;;;;;;;18.58;9.95;;;1.30;92.80;;;;;;6253254;28;20092;-79
2022/01/19 06:56:24;;;;;;;26.38;11.27;;;1.30;92.80;;;;;;6250530;28;20049;-80
2022/01/19 06:59:25;;;;;;;21.75;12.35;;;1.20;92.70;;;;;;6250586;28;20352;-78
2022/01/19 07:02:29;;;;;;;22.05;11.20;;;1.20;92.50;;;;;;6250380;28;20514;-78
2022/01/19 07:05:30;;;;;;;26.45;12.30;;;1.20;92.60;;;;;;6251174;28;20041;-78
2022/01/19 07:08:32;;;;;;;23.10;12.25;;;1.30;92.90;;;;;;6237356;28;20525;-79
2022/01/19 07:11:35;;;;;;;28.13;11.15;;;1.30;92.80;;;;;;6226966;28;20108;-78
2022/01/19 07:14:37;;;;;;;26.67;11.52;;;1.30;92.40;;;;;;6224835;28;20077;-78
2022/01/19 07:17:41;;;;;;;25.08;11.30;;;1.30;92.30;;;;;;6226077;28;20056;-79
2022/01/19 07:20:43;;;;;;;25.40;12.32;;;1.30;92.30;;;;;;6226234;28;20049;-78
2022/01/19 07:23:44;;;;;;;23.00;10.48;;;1.30;92.40;;;;;;6226342;28;20141;-79
2022/01/19 07:26:46;;;;;;;31.15;9.98;;;1.40;92.30;;;;;;6227047;28;20045;-79
2022/01/19 07:29:48;;;;;;;16.33;8.38;;;1.40;92.10;;;;;;6226955;28;20057;-80
2022/01/19 07:32:51;;;;;;;29.13;8.98;;;1.40;91.90;;;;;;6225025;28;20081;-78
2022/01/19 07:35:53;;;;;;;18.60;8.30;;;1.40;91.80;;;;;;6196955;28;20050;-78
2022/01/19 07:38:55;;;;;;;21.90;8.15;;;1.40;91.70;;;;;;6240785;28;20073;-78
2022/01/19 07:41:57;;;;;;;18.40;8.98;;;1.40;91.70;;;;;;6230737;28;20432;-78
2022/01/19 07:44:59;;;;;;;23.38;7.88;;;1.40;91.60;;;;;;6226496;28;20055;-78
2022/01/19 07:48:02;;;;;;;12.30;6.53;;;1.40;91.80;;;;;;6225913;28;20113;-80
2022/01/19 07:51:04;;;;;;;18.98;8.93;;;1.50;91.80;;;;;;6226052;28;20042;-79
2022/01/19 07:54:06;;;;;;;16.02;8.18;;;1.50;91.70;;;;;;6225620;28;20065;-78
2022/01/19 07:57:08;;;;;;;16.73;8.00;;;1.60;91.70;;;;;;6250509;28;20051;-79
2022/01/19 08:00:10;;;;;;;24.33;10.82;;;1.70;91.70;;;;;;6241092;28;20045;-78
2022/01/19 08:03:14;;;;;;;21.05;10.10;;;1.70;91.70;;;;;;6224183;28;20124;-78
2022/01/19 08:06:16;;;;;;;18.88;9.75;;;1.80;91.70;;;;;;6223690;28;20057;-78
2022/01/19 08:09:17;;;;;;;17.50;9.45;;;1.90;91.70;;;;;;6235057;28;20048;-78
2022/01/19 08:12:19;;;;;;;19.90;9.75;;;2.00;91.60;;;;;;6249958;28;20060;-78
2022/01/19 08:15:21;;;;;;;29.17;12.25;;;2.30;91.60;;;;;;6249002;28;20056;-79
2022/01/19 08:18:24;;;;;;;22.27;11.50;;;2.30;91.60;;;;;;6248498;28;20046;-78
2022/01/19 08:21:26;;;;;;;20.85;9.73;;;2.50;91.70;;;;;;6252158;28;20068;-79
2022/01/19 08:24:27;;;;;;;26.35;13.00;;;2.70;91.70;;;;;;6253432;28;20049;-80
2022/01/19 08:27:29;;;;;;;29.38;13.93;;;2.90;91.70;;;;;;6215738;28;20058;-79
2022/01/19 08:30:31;;;;;;;30.27;12.65;;;3.20;91.50;;;;;;6188791;28;20520;-79
2022/01/19 08:33:34;;;;;;;25.05;13.02;;;3.40;91.40;;;;;;6179488;28;20511;-78
2022/01/19 08:36:36;;;;;;;20.23;12.70;;;3.60;91.00;;;;;;6180229;28;20061;-79
2022/01/19 08:39:39;;;;;;;22.23;11.40;;;3.70;90.80;;;;;;6194670;28;20039;-78
2022/01/19 08:42:41;;;;;;;23.08;10.88;;;3.90;90.60;;;;;;6236878;28;20052;-78
2022/01/19 08:45:43;;;;;;;20.90;11.25;;;4.20;90.60;;;;;;6254271;28;20060;-78
2022/01/19 08:48:46;;;;;;;23.02;10.50;;;4.30;90.00;;;;;;6252828;28;20195;-78
2022/01/19 08:51:48;;;;;;;21.00;12.05;;;4.60;89.30;;;;;;6253201;28;20049;-78
2022/01/19 08:54:50;;;;;;;21.35;12.32;;;4.80;88.80;;;;;;6253008;28;20045;-78
2022/01/19 08:57:52;;;;;;;19.35;11.20;;;5.10;88.20;;;;;;6253444;28;20094;-79
2022/01/19 09:00:55;;;;;;;17.95;8.82;;;5.30;86.70;;;;;;6253008;28;20060;-76
2022/01/19 09:03:58;;;;;;;14.80;7.75;;;5.50;84.70;;;;;;6253473;28;20054;-80
2022/01/19 09:07:00;;;;;;;18.90;8.90;;;5.50;84.10;;;;;;6252242;28;20045;-78
2022/01/19 09:10:01;;;;;;;18.85;8.50;;;5.80;84.10;;;;;;6236344;28;20133;-78
2022/01/19 09:13:03;;;;;;;15.07;8.80;;;6.00;82.90;;;;;;6227861;28;20069;-79
2022/01/19 09:16:06;;;;;;;15.52;8.20;;;6.10;81.90;;;;;;6227671;28;20063;-79
2022/01/19 09:19:10;;;;;;;16.75;9.18;;;6.30;81.10;;;;;;6227615;28;20411;-79
2022/01/19 09:22:12;;;;;;;12.10;8.07;;;6.40;79.70;;;;;;6227167;28;20070;-79
2022/01/19 09:25:16;;;;;;;17.80;10.43;;;6.50;79.40;;;;;;6227284;28;20046;-78
2022/01/19 09:28:17;;;;;;;14.02;8.77;;;6.80;78.70;;;;;;6227426;28;20053;-79
2022/01/19 09:31:19;;;;;;;15.73;9.15;;;7.00;78.10;;;;;;6226520;28;20046;-79
2022/01/19 09:34:23;;;;;;;13.65;8.45;;;7.20;76.70;;;;;;6227479;28;20073;-79
2022/01/19 09:37:26;;;;;;;18.95;9.60;;;7.40;76.50;;;;;;6231196;28;20064;-79
2022/01/19 09:40:27;;;;;;;14.00;7.35;;;7.60;74.80;;;;;;6243764;28;20049;-78
2022/01/19 09:43:29;;;;;;;16.00;8.25;;;7.80;74.00;;;;;;6251905;28;20049;-78
2022/01/19 09:46:31;;;;;;;16.42;8.18;;;7.90;73.40;;;;;;6250999;28;20430;-78
2022/01/19 09:49:34;;;;;;;15.10;7.68;;;8.00;72.20;;;;;;6251041;28;20049;-78
2022/01/19 09:52:39;;;;;;;22.77;8.27;;;8.00;71.50;;;;;;6251205;28;20049;-79
2022/01/19 09:55:41;;;;;;;13.35;7.32;;;8.10;71.50;;;;;;6250611;28;20056;-78
2022/01/19 09:58:43;;;;;;;14.77;7.32;;;8.30;70.70;;;;;;6250627;28;20052;-78
2022/01/19 10:01:53;;;;;;;12.75;6.85;;;8.40;69.90;;;;;;6243478;28;20188;-79
2022/01/19 10:05:06;;;;;;;13.02;7.38;;;8.50;69.40;;;;;;6225806;28;20181;-79
2022/01/19 10:08:08;;;;;;;12.90;7.40;;;8.60;68.80;;;;;;6227985;28;20197;-80
2022/01/19 10:11:18;;;;;;;15.60;8.18;;;8.60;68.00;;;;;;6232580;28;20042;-79
2022/01/19 10:17:39;;;;;;;15.13;7.93;;;8.50;68.20;;;;;;6225801;28;20050;-78
2022/01/19 10:20:44;;;;;;;14.27;7.57;;;8.60;68.50;;;;;;6225824;28;20046;-80
2022/01/19 10:23:50;;;;;;;12.00;7.43;;;8.70;67.10;;;;;;6226316;28;20057;-78
2022/01/19 10:26:52;;;;;;;14.52;7.40;;;8.80;67.20;;;;;;6224566;28;20585;-79
2022/01/19 10:29:56;;;;;;;14.50;8.45;;;9.00;67.00;;;;;;6224831;28;20048;-80
2022/01/19 10:33:02;;;;;;;14.50;7.75;;;9.20;65.80;;;;;;6224633;28;20498;-80
2022/01/19 10:36:05;;;;;;;15.68;6.53;;;9.40;65.80;;;;;;6225321;28;20049;-80
2022/01/19 10:39:07;;;;;;;13.13;7.40;;;9.50;64.50;;;;;;6233455;28;20042;-78
2022/01/19 10:42:11;;;;;;;11.98;7.80;;;9.50;64.80;;;;;;6248224;28;20399;-78
2022/01/19 10:45:14;;;;;;;18.40;7.40;;;9.60;63.90;;;;;;6249012;28;20052;-79
2022/01/19 10:48:31;;;;;;;12.15;6.63;;;9.70;64.40;;;;;;6249496;28;20060;-80
2022/01/19 10:51:40;;;;;;;12.00;7.00;;;9.90;63.70;;;;;;6249288;28;20041;-79
2022/01/19 10:54:48;;;;;;;12.77;6.47;;;9.90;62.80;;;;;;6248867;28;20658;-79
2022/01/19 10:57:51;;;;;;;13.23;6.43;;;10.00;63.00;;;;;;6249155;28;20045;-78
2022/01/19 11:00:55;;;;;;;10.52;5.32;;;10.20;61.90;;;;;;6249252;28;20045;-79
2022/01/19 11:04:24;;;;;;;11.05;6.32;;;10.40;61.30;;;;;;6250206;28;20088;-79
2022/01/19 11:07:28;;;;;;;10.38;5.55;;;10.50;61.20;;;;;;6248891;28;20052;-79
2022/01/19 11:10:31;;;;;;;14.32;6.50;;;10.60;61.00;;;;;;6240714;28;20073;-80
2022/01/19 11:13:40;;;;;;;11.40;6.25;;;10.60;59.90;;;;;;6248604;28;20053;-79
2022/01/19 11:16:42;;;;;;;12.95;6.35;;;10.80;60.50;;;;;;6248981;28;20049;-79
2022/01/19 11:19:44;;;;;;;13.15;6.82;;;10.80;58.90;;;;;;6249584;28;20050;-79
2022/01/19 11:23:13;;;;;;;12.43;7.93;;;10.70;59.50;;;;;;6249022;28;20057;-80
2022/01/19 11:26:17;;;;;;;14.73;6.68;;;10.60;59.60;;;;;;6248922;28;20049;-79
2022/01/19 11:29:22;;;;;;;13.07;8.27;;;10.60;59.50;;;;;;6249242;28;20045;-79
2022/01/19 11:32:23;;;;;;;12.50;6.78;;;10.80;59.20;;;;;;6248998;28;20049;-81
2022/01/19 11:35:32;;;;;;;12.35;7.72;;;11.20;59.30;;;;;;6247730;28;20041;-81
2022/01/19 11:38:40;;;;;;;14.07;7.15;;;11.70;57.40;;;;;;6239725;28;20402;-81
2022/01/19 11:41:50;;;;;;;10.85;6.63;;;12.10;56.50;;;;;;6226619;28;20125;-81
2022/01/19 11:44:52;;;;;;;15.63;6.80;;;12.50;55.60;;;;;;6223063;28;20423;-79
2022/01/19 11:48:16;;;;;;;14.90;7.13;;;12.60;54.10;;;;;;6224309;28;20643;-78
2022/01/19 11:51:27;;;;;;;11.52;5.85;;;12.70;55.10;;;;;;6224159;28;20038;-79
2022/01/19 11:54:34;;;;;;;14.55;6.55;;;13.10;54.50;;;;;;6228895;28;20525;-79
2022/01/19 11:57:36;;;;;;;12.07;7.22;;;13.00;54.00;;;;;;6229216;28;20046;-81
2022/01/19 12:00:39;;;;;;;15.73;6.78;;;12.80;54.60;;;;;;6250348;28;20052;-79
2022/01/19 12:03:42;;;;;;;16.45;7.22;;;12.60;54.90;;;;;;6254009;28;20080;-79
2022/01/19 12:06:44;;;;;;;14.80;6.93;;;12.20;54.70;;;;;;6253627;28;20177;-80
2022/01/19 12:09:57;;;;;;;13.68;7.20;;;11.70;55.80;;;;;;6248010;28;20038;-81
2022/01/19 12:13:44;;;;;;;14.00;6.82;;;11.20;57.20;;;;;;6229519;28;20177;-80
2022/01/19 12:16:57;;;;;;;15.60;7.15;;;10.80;57.60;;;;;;6229352;28;20046;-80
2022/01/19 12:20:01;;;;;;;14.43;7.65;;;10.40;58.70;;;;;;6232924;28;20695;-77
2022/01/19 12:23:25;;;;;;;12.32;6.72;;;10.10;59.60;;;;;;6223958;28;20073;-79
2022/01/19 12:26:48;;;;;;;14.70;7.05;;;9.70;60.90;;;;;;6230498;28;20054;-79
2022/01/19 12:29:52;;;;;;;13.93;7.63;;;9.30;62.30;;;;;;6228316;28;20053;-79
2022/01/19 12:32:55;;;;;;;14.18;7.82;;;9.10;63.10;;;;;;6228200;28;20140;-79
2022/01/19 12:35:56;;;;;;;12.38;7.13;;;9.00;63.70;;;;;;6234893;28;20181;-80
2022/01/19 12:39:39;;;;;;;18.92;8.13;;;8.90;64.50;;;;;;6244434;28;20042;-79
2022/01/19 12:42:43;;;;;;;14.27;7.68;;;8.70;65.30;;;;;;6233376;28;20078;-78
2022/01/19 12:45:49;;;;;;;18.77;9.57;;;8.80;65.50;;;;;;6235473;28;20050;-80
2022/01/19 12:48:55;;;;;;;27.52;10.27;;;8.80;65.40;;;;;;6256552;23;20052;-82
2022/01/19 12:51:57;;;;;;;16.13;9.38;;;8.70;65.40;;;;;;6276045;28;20461;-81
2022/01/19 12:55:14;;;;;;;13.88;8.50;;;8.60;65.70;;;;;;6276509;28;20049;-82
2022/01/19 12:58:24;;;;;;;14.68;7.80;;;8.40;66.40;;;;;;6277173;28;20053;-83
2022/01/19 13:01:26;;;;;;;26.05;15.63;;;8.30;67.40;;;;;;6278168;28;20048;-82
2022/01/19 13:04:30;;;;;;;26.50;16.23;;;8.30;67.90;;;;;;6278827;28;20049;-81
2022/01/19 13:07:34;;;;;;;22.27;13.35;;;8.30;68.10;;;;;;6273716;28;20119;-80
2022/01/19 13:10:42;;;;;;;34.80;16.17;;;8.30;68.10;;;;;;6263175;28;20098;-81
2022/01/19 13:14:05;;;;;;;29.95;16.83;;;8.10;68.50;;;;;;6256531;28;20056;-81
2022/01/19 13:17:07;;;;;;;36.83;16.65;;;8.10;69.20;;;;;;6247088;28;20047;-79
2022/01/19 13:20:11;;;;;;;20.50;10.73;;;8.00;69.40;;;;;;6252470;28;20046;-82
2022/01/19 13:23:13;;;;;;;21.65;9.77;;;8.00;69.80;;;;;;6249829;28;20180;-81
2022/01/19 13:26:16;;;;;;;20.38;11.45;;;7.90;70.10;;;;;;6253242;28;20052;-83
2022/01/19 13:29:22;;;;;;;24.23;11.73;;;7.80;70.40;;;;;;6254269;28;20528;-82
2022/01/19 13:32:26;;;;;;;23.20;11.00;;;7.70;71.10;;;;;;6253742;28;20056;-81
2022/01/19 13:35:29;;;;;;;20.98;11.82;;;7.50;71.50;;;;;;6251337;28;20136;-82
2022/01/19 13:38:31;;;;;;;25.55;11.25;;;7.50;72.20;;;;;;6264768;28;20633;-82
2022/01/19 13:41:42;;;;;;;24.55;11.20;;;7.50;72.60;;;;;;6258883;28;20125;-81
2022/01/19 13:44:49;;;;;;;21.92;12.15;;;7.50;72.50;;;;;;6255255;28;20578;-83
2022/01/19 13:47:56;;;;;;;23.95;12.55;;;7.50;72.70;;;;;;6256592;28;20140;-84
2022/01/19 13:51:01;;;;;;;34.08;14.80;;;7.60;72.60;;;;;;6257048;28;20045;-83
2022/01/19 13:54:06;;;;;;;39.63;19.75;;;7.60;72.60;;;;;;6257666;28;20049;-83
2022/01/19 13:57:09;;;;;;;21.45;12.40;;;7.50;72.90;;;;;;6256374;28;20041;-83
2022/01/19 14:00:13;;;;;;;29.23;14.05;;;7.50;73.30;;;;;;6257154;28;20418;-82
2022/01/19 14:03:15;;;;;;;24.00;13.48;;;7.40;73.60;;;;;;6255741;28;20045;-83
2022/01/19 14:06:25;;;;;;;33.70;18.20;;;7.40;73.80;;;;;;6265208;28;20061;-84
2022/01/19 14:09:31;;;;;;;42.35;23.80;;;7.40;74.10;;;;;;6271572;28;20041;-82
2022/01/19 14:12:34;;;;;;;75.93;39.60;;;7.30;74.30;;;;;;6279206;28;20082;-82
2022/01/19 14:15:40;;;;;;;48.08;29.10;;;7.30;74.70;;;;;;6278649;28;20045;-82
2022/01/19 14:18:41;;;;;;;56.28;30.83;;;7.30;74.80;;;;;;6278270;28;20474;-80
2022/01/19 14:22:12;;;;;;;54.70;33.22;;;7.10;74.90;;;;;;6277779;28;20049;-83
2022/01/19 14:25:17;;;;;;;39.20;22.27;;;7.10;75.30;;;;;;6268825;28;20041;-83
2022/01/19 14:28:21;;;;;;;26.67;13.50;;;7.00;75.50;;;;;;6278188;28;20553;-81
2022/01/19 14:31:22;;;;;;;40.42;19.95;;;7.00;75.90;;;;;;6277328;28;20045;-82
2022/01/19 14:34:38;;;;;;;22.35;11.10;;;6.90;76.20;;;;;;6283215;28;20482;-82
2022/01/19 14:37:56;;;;;;;23.65;10.40;;;6.90;76.40;;;;;;6280185;28;20476;-83
2022/01/19 14:41:05;;;;;;;21.90;10.15;;;6.80;76.90;;;;;;6268825;28;20049;-83
2022/01/19 14:44:19;;;;;;;26.15;10.70;;;6.80;77.10;;;;;;6279437;28;20064;-82
2022/01/19 14:47:36;;;;;;;25.90;11.45;;;6.80;77.20;;;;;;6281687;28;20069;-83
2022/01/19 14:50:38;;;;;;;24.60;10.85;;;6.80;77.50;;;;;;6281974;28;20044;-83
2022/01/19 14:53:40;;;;;;;25.58;10.50;;;6.80;77.60;;;;;;6278437;28;20045;-83
2022/01/19 14:56:44;;;;;;;23.88;10.43;;;6.70;77.90;;;;;;6278364;28;20136;-83
2022/01/19 14:59:47;;;;;;;28.50;12.18;;;6.80;78.00;;;;;;6277607;28;20053;-83
2022/01/19 15:02:56;;;;;;;24.27;10.20;;;6.80;77.90;;;;;;6278352;28;20124;-84
2022/01/19 15:05:58;;;;;;;33.58;10.63;;;6.80;78.00;;;;;;6278002;28;20045;-84
2022/01/19 15:09:00;;;;;;;23.60;10.15;;;6.80;78.30;;;;;;6271187;28;20074;-84
2022/01/19 15:12:02;;;;;;;26.10;11.25;;;6.80;78.30;;;;;;6256284;28;20048;-84
2022/01/19 15:15:08;;;;;;;27.20;12.60;;;6.80;78.50;;;;;;6252921;28;20199;-83
2022/01/19 15:18:11;;;;;;;28.10;11.55;;;6.80;78.40;;;;;;6253376;28;20454;-82
2022/01/19 15:21:13;;;;;;;22.65;9.93;;;6.90;78.40;;;;;;6251502;28;20442;-81
2022/01/19 15:24:15;;;;;;;27.08;11.70;;;6.80;78.50;;;;;;6251206;28;20049;-81
2022/01/19 15:27:17;;;;;;;23.95;11.13;;;6.80;78.70;;;;;;6267234;28;20066;-82
2022/01/19 15:30:20;;;;;;;22.73;10.43;;;6.80;79.50;;;;;;6255058;28;20050;-82
2022/01/19 15:33:22;;;;;;;21.08;10.32;;;6.90;79.00;;;;;;6253216;28;20053;-84
2022/01/19 15:36:24;;;;;;;44.97;22.95;;;7.00;79.00;;;;;;6252034;28;20053;-80
2022/01/19 15:39:26;;;;;;;80.15;42.58;;;7.00;78.90;;;;;;6264697;28;20116;-83
2022/01/19 15:42:29;;;;;;;82.25;37.30;;;7.00;79.60;;;;;;6277799;28;20186;-83
2022/01/19 15:45:35;;;;;;;23.98;11.90;;;7.00;79.10;;;;;;6277479;28;20045;-83
2022/01/19 15:48:37;;;;;;;26.75;10.77;;;6.90;79.50;;;;;;6277447;28;20045;-83
2022/01/19 15:51:41;;;;;;;34.70;15.75;;;6.90;80.00;;;;;;6274697;28;21282;-82
2022/01/19 15:54:43;;;;;;;27.20;10.77;;;6.80;80.10;;;;;;6275567;28;20051;-81
2022/01/19 15:57:45;;;;;;;27.38;12.05;;;6.80;80.30;;;;;;6276117;28;20053;-85
2022/01/19 16:00:51;;;;;;;27.27;12.90;;;6.70;80.50;;;;;;6274898;28;20564;-83
2022/01/19 16:03:52;;;;;;;20.35;9.93;;;6.70;80.70;;;;;;6275929;28;20044;-81
2022/01/19 16:06:55;;;;;;;28.55;12.52;;;6.70;81.00;;;;;;6274236;28;20045;-82
2022/01/19 16:09:57;;;;;;;25.35;10.70;;;6.60;81.60;;;;;;6260889;28;20045;-82
2022/01/19 16:12:59;;;;;;;29.30;12.02;;;6.60;81.80;;;;;;6249639;28;20045;-82
2022/01/19 16:16:02;;;;;;;24.95;12.00;;;6.60;82.30;;;;;;6242504;28;20048;-84
2022/01/19 16:19:05;;;;;;;28.90;13.80;;;6.50;82.40;;;;;;6251054;28;20052;-82
2022/01/19 16:22:15;;;;;;;22.88;10.93;;;6.50;82.50;;;;;;6250870;28;20262;-83
2022/01/19 16:28:37;;;;;;;28.08;12.32;;;6.50;83.20;;;;;;6256059;28;20053;-82
2022/01/19 16:31:41;;;;;;;24.33;12.38;;;6.40;83.20;;;;;;6250812;28;20045;-82
2022/01/19 16:34:43;;;;;;;29.83;13.93;;;6.40;83.20;;;;;;6243026;28;20053;-81
2022/01/19 16:37:44;;;;;;;26.42;12.73;;;6.40;83.30;;;;;;6256440;28;20147;-82
2022/01/19 16:40:48;;;;;;;36.35;14.95;;;6.40;83.20;;;;;;6260923;28;20057;-83
2022/01/19 16:43:50;;;;;;;25.00;11.13;;;6.50;83.20;;;;;;6255730;28;20061;-82
2022/01/19 16:46:54;;;;;;;31.60;13.45;;;6.40;82.90;;;;;;6254322;28;20049;-84
2022/01/19 16:49:56;;;;;;;34.45;13.77;;;6.50;83.20;;;;;;6255028;28;20128;-84
2022/01/19 16:52:58;;;;;;;26.75;12.68;;;6.60;83.10;;;;;;6255067;28;20140;-83
2022/01/19 16:56:02;;;;;;;33.08;12.93;;;6.60;82.90;;;;;;6256131;28;20498;-83
2022/01/19 16:59:05;;;;;;;34.15;14.13;;;6.60;82.60;;;;;;6254223;28;20049;-83
2022/01/19 17:02:09;;;;;;;37.20;13.07;;;6.60;82.80;;;;;;6254203;28;20044;-81